Time;durP1;ratioP1;P1;durP2;ratioP2;P2;SDS_P1;SDS_P2;PMS_P1;PMS_P2;Temp;Humidity;BMP_temperature;BMP_pressure;BME280_temperature;BME280_humidity;BME280_pressure;Samples;Min_cycle;Max_cycle;Signal;HPM_P1;HPM_P2
2022/05/23 00:02:00;;;;;;;;;;;12.10;99.90;;;;;;5066959;28;19942;-77
2022/05/23 00:04:26;;;;;;;;;;;12.00;99.90;;;;;;5053632;28;19909;-74
2022/05/23 00:06:52;;;;;;;;;;;12.00;99.90;;;;;;5060926;28;20007;-78
2022/05/23 00:09:17;;;;;;;;;;;11.80;99.90;;;;;;5054152;28;19909;-77
2022/05/23 00:11:43;;;;;;;;;;;11.70;99.90;;;;;;5053758;28;19909;-74
2022/05/23 00:14:08;;;;;;;;;;;11.60;99.90;;;;;;5053531;28;19962;-74
2022/05/23 00:16:36;;;;;;;;;;;11.50;99.90;;;;;;5067508;28;20319;-75
2022/05/23 00:19:02;;;;;;;;;;;11.40;99.90;;;;;;5048475;28;19919;-78
2022/05/23 00:21:27;;;;;;;;;;;11.40;99.90;;;;;;5053836;28;19972;-74
2022/05/23 00:23:53;;;;;;;;;;;11.40;99.90;;;;;;5060022;28;20345;-74
2022/05/23 00:26:19;;;;;;;;;;;11.40;99.90;;;;;;5053819;28;19909;-74
2022/05/23 00:28:45;;;;;;;;;;;11.30;99.90;;;;;;5072984;28;19970;-74
2022/05/23 00:31:11;;;;;;;;;;;11.30;99.90;;;;;;5067072;28;19913;-74
2022/05/23 00:36:23;;;;;;;;;;;11.20;99.90;;;;;;5054240;28;20281;-73
2022/05/23 00:38:48;;;;;;;;;;;11.10;99.90;;;;;;5053731;28;19992;-76
2022/05/23 00:44:11;;;;;;;;;;;10.90;99.90;;;;;;5065275;28;19942;-74
2022/05/23 00:46:50;;;;;;;;;;;10.80;99.90;;;;;;5071758;28;19908;-74
2022/05/23 00:49:17;;;;;;;;;;;10.80;99.90;;;;;;5054359;28;19916;-74
2022/05/23 00:51:43;;;;;;;;;;;10.80;99.90;;;;;;5059393;28;19909;-76
2022/05/23 00:54:08;;;;;;;;;;;10.70;99.90;;;;;;5059047;28;19915;-74
2022/05/23 00:56:43;;;;;;;;;;;10.70;99.90;;;;;;5072617;28;19916;-74
2022/05/23 00:59:09;;;;;;;;;;;10.80;99.90;;;;;;5059363;28;19917;-77
2022/05/23 01:01:36;;;;;;;;;;;11.00;99.90;;;;;;5058575;28;19908;-76
2022/05/23 01:04:02;;;;;;;;;;;11.00;99.90;;;;;;5065740;28;20258;-74
2022/05/23 01:06:27;;;;;;;;;;;10.90;99.90;;;;;;5058997;28;19916;-76
2022/05/23 01:08:54;;;;;;;;;;;10.80;99.90;;;;;;5055229;28;19916;-77
2022/05/23 01:11:20;;;;;;;;;;;10.70;99.90;;;;;;5052834;28;19919;-74
2022/05/23 01:13:45;;;;;;;;;;;10.80;99.90;;;;;;5064999;28;19912;-74
2022/05/23 01:16:11;;;;;;;;;;;10.80;99.90;;;;;;5066290;28;20281;-78
2022/05/23 01:18:37;;;;;;;;;;;10.90;99.90;;;;;;5056979;28;19909;-74
2022/05/23 01:21:04;;;;;;;;;;;11.10;99.90;;;;;;5060117;28;20003;-74
2022/05/23 01:23:29;;;;;;;;;;;11.00;99.90;;;;;;5070356;28;19920;-75
2022/05/23 01:25:56;;;;;;;;;;;11.00;99.90;;;;;;5072381;28;19908;-74
2022/05/23 01:28:21;;;;;;;;;;;10.90;99.90;;;;;;5060270;28;19983;-79
2022/05/23 01:30:47;;;;;;;;;;;10.70;99.90;;;;;;5070485;28;20255;-74
2022/05/23 01:33:13;;;;;;;;;;;10.70;99.90;;;;;;5070949;28;20007;-74
2022/05/23 01:35:39;;;;;;;;;;;10.70;99.90;;;;;;5072031;28;19909;-74
2022/05/23 01:38:05;;;;;;;;;;;10.80;99.90;;;;;;5071862;28;19908;-74
2022/05/23 01:40:30;;;;;;;;;;;10.70;99.90;;;;;;5071859;28;19912;-74
2022/05/23 01:42:56;;;;;;;;;;;10.70;99.90;;;;;;5071192;28;19942;-75
2022/05/23 01:45:23;;;;;;;;;;;10.60;99.90;;;;;;5070734;28;19912;-77
2022/05/23 01:47:49;;;;;;;;;;;10.60;99.90;;;;;;5061347;28;20374;-74
2022/05/23 01:50:15;;;;;;;;;;;10.70;99.90;;;;;;5058644;28;19923;-74
2022/05/23 01:52:40;;;;;;;;;;;10.80;99.90;;;;;;5067997;28;19916;-75
2022/05/23 01:55:06;;;;;;;;;;;10.80;99.90;;;;;;5070693;28;19913;-74
2022/05/23 01:57:32;;;;;;;;;;;10.70;99.90;;;;;;5056143;28;19913;-74
2022/05/23 02:02:44;;;;;;;;;;;10.60;99.90;;;;;;5063166;28;19923;-76
2022/05/23 02:05:10;;;;;;;;;;;10.60;99.90;;;;;;5071428;28;19908;-74
2022/05/23 02:07:35;;;;;;;;;;;10.60;99.90;;;;;;5067222;28;19909;-74
2022/05/23 02:10:01;;;;;;;;;;;10.50;99.90;;;;;;5052336;28;19912;-74
2022/05/23 02:12:26;;;;;;;;;;;10.50;99.90;;;;;;5062869;28;19944;-76
2022/05/23 02:14:52;;;;;;;;;;;10.50;99.90;;;;;;5063132;28;20280;-74
2022/05/23 02:17:17;;;;;;;;;;;10.50;99.90;;;;;;5064675;28;20429;-74
2022/05/23 02:19:43;;;;;;;;;;;10.50;99.90;;;;;;5056778;28;19909;-74
2022/05/23 02:22:09;;;;;;;;;;;10.50;99.90;;;;;;5054921;28;19917;-77
2022/05/23 02:24:34;;;;;;;;;;;10.40;99.90;;;;;;5051535;28;19917;-74
2022/05/23 02:27:00;;;;;;;;;;;10.40;99.90;;;;;;5061126;28;19974;-74
2022/05/23 02:29:26;;;;;;;;;;;10.40;99.90;;;;;;5064306;28;19916;-73
2022/05/23 02:31:51;;;;;;;;;;;10.50;99.90;;;;;;5062146;28;19919;-73
2022/05/23 02:34:18;;;;;;;;;;;10.50;99.90;;;;;;5064487;28;20318;-73
2022/05/23 02:36:44;;;;;;;;;;;10.40;99.90;;;;;;5065130;28;19987;-75
2022/05/23 02:39:09;;;;;;;;;;;10.50;99.90;;;;;;5064686;28;19908;-74
2022/05/23 02:41:35;;;;;;;;;;;10.50;99.90;;;;;;5052190;28;20274;-74
2022/05/23 02:44:01;;;;;;;;;;;10.60;99.90;;;;;;5068920;28;19912;-73
2022/05/23 02:46:28;;;;;;;;;;;10.50;99.90;;;;;;5051433;28;19960;-73
2022/05/23 02:48:54;;;;;;;;;;;10.50;99.90;;;;;;5051862;28;19917;-75
2022/05/23 02:51:19;;;;;;;;;;;10.50;99.90;;;;;;5056519;28;19996;-74
2022/05/23 02:53:47;;;;;;;;;;;10.40;99.90;;;;;;5056296;28;20149;-74
2022/05/23 02:56:12;;;;;;;;;;;10.40;99.90;;;;;;5073969;28;20350;-74
2022/05/23 02:58:38;;;;;;;;;;;10.40;99.90;;;;;;5074331;28;19908;-75
2022/05/23 03:01:03;;;;;;;;;;;10.50;99.90;;;;;;5068257;28;20315;-73
2022/05/23 03:03:29;;;;;;;;;;;10.50;99.90;;;;;;5073680;28;19912;-73
2022/05/23 03:05:55;;;;;;;;;;;10.60;99.90;;;;;;5068018;28;19909;-74
2022/05/23 03:08:22;;;;;;;;;;;10.60;99.90;;;;;;5067298;28;20392;-74
2022/05/23 03:10:49;;;;;;;;;;;10.70;99.90;;;;;;5074254;28;20428;-73
2022/05/23 03:13:15;;;;;;;;;;;10.70;99.90;;;;;;5061273;28;19908;-74
2022/05/23 03:15:41;;;;;;;;;;;10.70;99.90;;;;;;5055114;28;19970;-74
2022/05/23 03:18:07;;;;;;;;;;;10.70;99.90;;;;;;5067434;28;20377;-74
2022/05/23 03:20:32;;;;;;;;;;;10.80;99.90;;;;;;5059150;28;20011;-74
2022/05/23 03:28:26;;;;;;;;;;;11.00;99.90;;;;;;5055547;28;19982;-75
2022/05/23 03:30:52;;;;;;;;;;;11.00;99.90;;;;;;5062997;28;19917;-73
2022/05/23 03:33:17;;;;;;;;;;;11.00;99.90;;;;;;5055142;28;19959;-73
2022/05/23 03:35:43;;;;;;;;;;;11.00;99.90;;;;;;5050558;28;19910;-73
2022/05/23 03:38:09;;;;;;;;;;;11.10;99.90;;;;;;5065937;28;19909;-76
2022/05/23 03:40:35;;;;;;;;;;;11.10;99.90;;;;;;5075027;28;19919;-73
2022/05/23 03:43:01;;;;;;;;;;;11.10;99.90;;;;;;5074090;28;20392;-75
2022/05/23 03:45:26;;;;;;;;;;;11.20;99.90;;;;;;5060668;28;19908;-73
2022/05/23 03:47:53;;;;;;;;;;;11.40;99.90;;;;;;5070753;28;20286;-74
2022/05/23 03:50:19;;;;;;;;;;;11.50;99.90;;;;;;5074108;28;19917;-73
2022/05/23 03:52:44;;;;;;;;;;;11.60;99.90;;;;;;5067694;28;19915;-73
2022/05/23 03:55:10;;;;;;;;;;;11.70;99.90;;;;;;5074295;28;19988;-73
2022/05/23 03:57:35;;;;;;;;;;;11.80;99.90;;;;;;5054445;28;20388;-75
2022/05/23 04:00:02;;;;;;;;;;;11.90;99.90;;;;;;5074816;28;20003;-77
2022/05/23 04:02:27;;;;;;;;;;;11.90;99.90;;;;;;5062120;28;19921;-75
2022/05/23 04:04:53;;;;;;;;;;;12.00;99.90;;;;;;5068084;28;19908;-73
2022/05/23 04:07:18;;;;;;;;;;;12.20;99.90;;;;;;5054623;28;20195;-73
2022/05/23 04:09:44;;;;;;;;;;;12.30;99.90;;;;;;5056977;28;19916;-73
2022/05/23 04:12:09;;;;;;;;;;;12.50;99.90;;;;;;5067244;28;19916;-76
2022/05/23 04:14:35;;;;;;;;;;;12.70;99.90;;;;;;5060980;28;19923;-73
2022/05/23 04:17:00;;;;;;;;;;;12.90;99.90;;;;;;5056540;28;19954;-73
2022/05/23 04:19:26;;;;;;;;;;;13.10;99.90;;;;;;5055619;28;20361;-73
2022/05/23 04:21:52;;;;;;;;;;;13.90;99.90;;;;;;5059917;28;19909;-73
2022/05/23 04:24:18;;;;;;;;;;;14.20;99.90;;;;;;5074353;28;20094;-74
2022/05/23 04:26:44;;;;;;;;;;;14.10;99.90;;;;;;5070790;28;20007;-74
2022/05/23 04:29:09;;;;;;;;;;;14.00;99.90;;;;;;5066185;28;19962;-74
2022/05/23 04:31:35;;;;;;;;;;;13.60;99.90;;;;;;5075157;28;19915;-73
2022/05/23 04:36:46;;;;;;;;;;;12.80;99.90;;;;;;5058611;28;19932;-75
2022/05/23 04:39:12;;;;;;;;;;;12.60;99.90;;;;;;5057093;28;19912;-73
2022/05/23 04:41:38;;;;;;;;;;;12.50;99.90;;;;;;5055900;28;20332;-73
2022/05/23 04:44:03;;;;;;;;;;;12.40;99.90;;;;;;5056719;28;19909;-74
2022/05/23 04:46:29;;;;;;;;;;;12.40;99.90;;;;;;5068164;28;19909;-74
2022/05/23 04:51:39;;;;;;;;;;;12.40;99.90;;;;;;5076549;28;19951;-74
2022/05/23 04:54:05;;;;;;;;;;;12.40;99.90;;;;;;5069334;28;19909;-75
2022/05/23 04:56:31;;;;;;;;;;;12.50;99.90;;;;;;5056711;28;19916;-75
2022/05/23 04:58:56;;;;;;;;;;;12.50;99.90;;;;;;5070266;28;19916;-74
2022/05/23 05:01:22;;;;;;;;;;;12.40;99.90;;;;;;5074826;28;19933;-74
2022/05/23 05:03:48;;;;;;;;;;;12.50;99.90;;;;;;5075727;28;19912;-75
2022/05/23 05:06:13;;;;;;;;;;;12.50;99.90;;;;;;5056939;28;19912;-75
2022/05/23 05:08:39;;;;;;;;;;;12.50;99.90;;;;;;5063883;28;19909;-76
2022/05/23 05:11:05;;;;;;;;;;;12.50;99.90;;;;;;5055583;28;19916;-74
2022/05/23 05:13:33;;;;;;;;;;;12.50;99.90;;;;;;5066632;28;20336;-74
2022/05/23 05:16:03;;;;;;;;;;;12.60;99.90;;;;;;5056864;28;20019;-74
2022/05/23 05:18:30;;;;;;;;;;;12.60;99.90;;;;;;5074003;28;20362;-74
2022/05/23 05:20:57;;;;;;;;;;;12.60;99.90;;;;;;5055445;28;19908;-74
2022/05/23 05:23:22;;;;;;;;;;;12.70;99.90;;;;;;5059297;28;19921;-74
2022/05/23 05:25:50;;;;;;;;;;;12.70;99.90;;;;;;5069139;28;20000;-74
2022/05/23 05:28:16;;;;;;;;;;;12.80;99.90;;;;;;5060207;28;19916;-74
2022/05/23 05:30:44;;;;;;;;;;;12.90;99.90;;;;;;5069162;28;19913;-74
2022/05/23 05:33:12;;;;;;;;;;;12.90;99.90;;;;;;5073057;28;20382;-74
2022/05/23 05:35:52;;;;;;;;;;;13.10;99.90;;;;;;5063172;28;19962;-74
2022/05/23 05:38:21;;;;;;;;;;;13.10;99.90;;;;;;5056720;28;19909;-74
2022/05/23 05:40:50;;;;;;;;;;;13.20;99.90;;;;;;5065910;28;19909;-74
2022/05/23 05:43:27;;;;;;;;;;;13.20;99.90;;;;;;5058874;28;19954;-76
2022/05/23 05:45:58;;;;;;;;;;;13.30;99.90;;;;;;5065070;28;19919;-74
2022/05/23 05:48:24;;;;;;;;;;;13.40;99.90;;;;;;5058824;28;19955;-76
2022/05/23 05:50:50;;;;;;;;;;;13.50;99.90;;;;;;5056471;28;19913;-75
2022/05/23 05:53:28;;;;;;;;;;;13.60;99.90;;;;;;5058180;28;19963;-73
2022/05/23 05:55:53;;;;;;;;;;;13.80;99.90;;;;;;5058882;28;19913;-74
2022/05/23 05:58:19;;;;;;;;;;;13.80;99.90;;;;;;5058824;28;19915;-74
2022/05/23 06:00:44;;;;;;;;;;;14.10;99.90;;;;;;5065478;28;19909;-73
2022/05/23 06:03:10;;;;;;;;;;;14.40;99.90;;;;;;5058036;28;19924;-75
2022/05/23 06:11:23;;;;;;;;;;;14.70;99.90;;;;;;5062174;28;19956;-73
2022/05/23 06:11:24;;;;;;;;;;;15.10;99.90;;;;;;5053345;28;19916;-73
2022/05/23 06:13:50;;;;;;;;;;;15.00;99.90;;;;;;5051864;28;19913;-73
2022/05/23 06:16:16;;;;;;;;;;;14.80;99.90;;;;;;5051766;28;19919;-74
2022/05/23 06:18:42;;;;;;;;;;;14.40;99.90;;;;;;5054390;28;19909;-74
2022/05/23 06:21:09;;;;;;;;;;;14.40;99.90;;;;;;5071213;28;19912;-74
2022/05/23 06:23:47;;;;;;;;;;;14.40;99.90;;;;;;5063815;28;19913;-74
2022/05/23 06:26:16;;;;;;;;;;;14.70;99.90;;;;;;5067396;28;19973;-78
2022/05/23 06:28:42;;;;;;;;;;;14.80;99.90;;;;;;5051570;28;20358;-76
2022/05/23 06:31:07;;;;;;;;;;;14.90;99.90;;;;;;5054661;28;19908;-73
2022/05/23 06:33:33;;;;;;;;;;;15.20;99.90;;;;;;5059961;28;19909;-74
2022/05/23 06:35:58;;;;;;;;;;;15.20;99.90;;;;;;5056052;28;19908;-73
2022/05/23 06:38:25;;;;;;;;;;;15.50;99.90;;;;;;5058540;28;20372;-74
2022/05/23 06:40:51;;;;;;;;;;;15.60;99.90;;;;;;5055106;28;20038;-73
2022/05/23 06:43:17;;;;;;;;;;;15.70;99.90;;;;;;5056565;28;19923;-73
2022/05/23 06:45:42;;;;;;;;;;;15.80;99.90;;;;;;5061383;28;19913;-74
2022/05/23 06:48:09;;;;;;;;;;;16.10;99.90;;;;;;5053934;28;19931;-74
2022/05/23 06:50:34;;;;;;;;;;;16.70;99.90;;;;;;5070595;28;19985;-74
2022/05/23 06:53:00;;;;;;;;;;;17.20;99.90;;;;;;5051661;28;20316;-74
2022/05/23 06:55:25;;;;;;;;;;;17.00;99.90;;;;;;5060139;28;19908;-75
2022/05/23 06:57:51;;;;;;;;;;;17.40;99.90;;;;;;5051351;28;20283;-74
2022/05/23 07:00:17;;;;;;;;;;;17.70;99.90;;;;;;5050940;28;19971;-75
2022/05/23 07:02:43;;;;;;;;;;;17.70;99.90;;;;;;5049822;28;19917;-74
2022/05/23 07:13:21;;;;;;;;;;;16.90;99.90;;;;;;5054806;28;19915;-74
2022/05/23 07:15:49;;;;;;;;;;;16.90;99.90;;;;;;5051115;28;19909;-74
2022/05/23 07:18:15;;;;;;;;;;;16.90;99.90;;;;;;5051119;28;19947;-76
2022/05/23 07:20:41;;;;;;;;;;;16.80;99.90;;;;;;5050749;28;19909;-76
2022/05/23 07:23:06;;;;;;;;;;;17.00;99.90;;;;;;5057753;28;20412;-75
2022/05/23 07:25:32;;;;;;;;;;;17.10;99.90;;;;;;5067673;28;19959;-76
2022/05/23 07:27:58;;;;;;;;;;;17.50;99.90;;;;;;5057411;28;19968;-74
2022/05/23 07:30:23;;;;;;;;;;;17.80;99.90;;;;;;5063980;28;19916;-74
2022/05/23 07:32:49;;;;;;;;;;;18.10;99.90;;;;;;5070438;28;19913;-74
2022/05/23 07:35:16;;;;;;;;;;;18.10;99.90;;;;;;5067353;28;19958;-80
2022/05/23 07:37:41;;;;;;;;;;;17.80;99.90;;;;;;5066969;28;20285;-74
2022/05/23 07:40:07;;;;;;;;;;;17.70;99.90;;;;;;5047790;28;19908;-75
2022/05/23 07:42:33;;;;;;;;;;;17.50;99.90;;;;;;5061419;28;19924;-76
2022/05/23 07:44:58;;;;;;;;;;;17.50;99.90;;;;;;5073545;28;19908;-77
2022/05/23 07:47:24;;;;;;;;;;;17.60;99.90;;;;;;5074534;28;20420;-74
2022/05/23 07:49:50;;;;;;;;;;;17.60;99.90;;;;;;5074313;28;19959;-74
2022/05/23 07:52:16;;;;;;;;;;;17.70;99.90;;;;;;5069375;28;19909;-77
2022/05/23 08:02:51;;;;;;;;;;;18.90;99.90;;;;;;5059984;28;19931;-77
2022/05/23 08:05:16;;;;;;;;;;;18.40;99.90;;;;;;5053775;28;19913;-74
2022/05/23 08:07:42;;;;;;;;;;;18.40;99.90;;;;;;5060931;28;19912;-74
2022/05/23 08:10:08;;;;;;;;;;;18.50;99.90;;;;;;5056007;28;20406;-76
2022/05/23 08:12:33;;;;;;;;;;;18.60;99.90;;;;;;5064311;28;19984;-76
2022/05/23 08:14:59;;;;;;;;;;;19.00;99.90;;;;;;5060008;28;19909;-77
2022/05/23 08:17:24;;;;;;;;;;;18.90;99.90;;;;;;5063378;28;20847;-75
2022/05/23 08:19:50;;;;;;;;;;;19.30;99.90;;;;;;5060039;28;19909;-74
2022/05/23 08:22:16;;;;;;;;;;;19.40;99.90;;;;;;5060614;28;19913;-77
2022/05/23 08:24:42;;;;;;;;;;;19.30;99.90;;;;;;5057077;28;19909;-75
2022/05/23 08:27:07;;;;;;;;;;;20.40;99.90;;;;;;5060705;28;19915;-77
2022/05/23 08:29:35;;;;;;;;;;;20.70;99.90;;;;;;5053594;28;19931;-74
2022/05/23 08:32:04;;;;;;;;;;;20.20;99.90;;;;;;5061196;28;19916;-75
2022/05/23 08:34:31;;;;;;;;;;;20.10;99.90;;;;;;5072405;28;19908;-74
2022/05/23 08:36:58;;;;;;;;;;;20.10;99.90;;;;;;5064481;28;19916;-75
2022/05/23 08:39:24;;;;;;;;;;;20.20;99.90;;;;;;5066542;28;20352;-75
2022/05/23 08:41:50;;;;;;;;;;;22.10;99.90;;;;;;5061059;28;19944;-75
2022/05/23 08:44:31;;;;;;;;;;;22.70;99.90;;;;;;5071350;28;19980;-80
2022/05/23 08:47:26;;;;;;;;;;;23.60;99.90;;;;;;5053315;28;19975;-75
2022/05/23 08:50:14;;;;;;;;;;;24.20;99.90;;;;;;5059970;28;20178;-74
2022/05/23 08:52:45;;;;;;;;;;;23.30;99.90;;;;;;5070873;28;19935;-74
2022/05/23 08:55:19;;;;;;;;;;;22.60;99.90;;;;;;5061437;28;20354;-75
2022/05/23 08:57:50;;;;;;;;;;;21.30;99.90;;;;;;5053248;28;20331;-74
2022/05/23 09:00:19;;;;;;;;;;;20.90;99.90;;;;;;5059492;28;20236;-75
2022/05/23 09:02:48;;;;;;;;;;;20.50;99.90;;;;;;5059053;28;20125;-77
2022/05/23 09:05:22;;;;;;;;;;;20.70;99.90;;;;;;5059111;28;19920;-75
2022/05/23 09:07:51;;;;;;;;;;;20.80;99.90;;;;;;5053454;28;19963;-75
2022/05/23 09:10:19;;;;;;;;;;;20.50;99.90;;;;;;5041654;28;20359;-78
2022/05/23 09:12:45;;;;;;;;;;;20.40;99.90;;;;;;5050354;28;20003;-75
2022/05/23 09:15:10;;;;;;;;;;;20.50;99.90;;;;;;5050515;28;20000;-80
2022/05/23 09:17:39;;;;;;;;;;;20.70;99.90;;;;;;5052177;28;20232;-75
2022/05/23 09:20:12;;;;;;;;;;;21.00;99.90;;;;;;5062573;28;20130;-74
2022/05/23 09:22:52;;;;;;;;;;;20.90;99.90;;;;;;5064806;28;19912;-75
2022/05/23 09:25:20;;;;;;;;;;;21.20;99.90;;;;;;5051932;28;19916;-75
2022/05/23 09:27:45;;;;;;;;;;;21.40;99.90;;;;;;5052282;28;19909;-75
2022/05/23 09:30:13;;;;;;;;;;;21.50;99.90;;;;;;5053959;28;19920;-79
2022/05/23 09:32:55;;;;;;;;;;;21.50;99.90;;;;;;5062307;28;19999;-75
2022/05/23 09:35:24;;;;;;;;;;;21.50;99.90;;;;;;5058396;28;19909;-75
2022/05/23 09:38:08;;;;;;;;;;;21.70;99.90;;;;;;5062806;28;19909;-75
2022/05/23 09:40:36;;;;;;;;;;;22.40;99.90;;;;;;5048619;28;19978;-75
2022/05/23 09:49:06;;;;;;;;;;;23.80;99.90;;;;;;5064960;28;19919;-78
2022/05/23 09:51:32;;;;;;;;;;;22.70;99.90;;;;;;5069505;28;19915;-77
2022/05/23 09:54:00;;;;;;;;;;;21.90;99.90;;;;;;5070378;28;19955;-75
2022/05/23 09:56:31;;;;;;;;;;;21.90;99.90;;;;;;5071246;28;20113;-75
2022/05/23 09:58:59;;;;;;;;;;;21.80;99.90;;;;;;5071083;28;19908;-78
2022/05/23 10:01:29;;;;;;;;;;;21.40;99.90;;;;;;5055197;28;19913;-75
2022/05/23 10:03:54;;;;;;;;;;;21.50;99.90;;;;;;5061885;28;20297;-75
2022/05/23 10:06:32;;;;;;;;;;;21.30;99.90;;;;;;5058698;28;19916;-78
2022/05/23 10:08:58;;;;;;;;;;;21.20;99.90;;;;;;5055135;28;19908;-75
2022/05/23 10:11:29;;;;;;;;;;;21.00;99.90;;;;;;5056488;28;20349;-81
2022/05/23 10:13:58;;;;;;;;;;;21.00;99.90;;;;;;5052172;28;20288;-75
2022/05/23 10:16:26;;;;;;;;;;;21.10;99.90;;;;;;5069524;28;20400;-75
2022/05/23 10:18:57;;;;;;;;;;;21.00;99.90;;;;;;5071531;28;19909;-74
2022/05/23 10:21:35;;;;;;;;;;;21.10;99.90;;;;;;5057977;28;19956;-77
2022/05/23 10:24:04;;;;;;;;;;;20.90;99.90;;;;;;5056039;28;19913;-75
2022/05/23 10:26:33;;;;;;;;;;;20.70;99.90;;;;;;5051266;28;20313;-75
2022/05/23 10:29:11;;;;;;;;;;;20.60;99.90;;;;;;5057918;28;19909;-77
2022/05/23 10:31:45;;;;;;;;;;;20.40;99.90;;;;;;5050567;28;19923;-75
2022/05/23 10:34:14;;;;;;;;;;;20.20;99.90;;;;;;5050212;28;19909;-78
2022/05/23 10:36:40;;;;;;;;;;;20.00;99.90;;;;;;5050812;28;20336;-75
2022/05/23 10:42:07;;;;;;;;;;;19.70;99.90;;;;;;5070904;28;20384;-76
2022/05/23 10:44:51;;;;;;;;;;;19.50;99.90;;;;;;5069405;28;20141;-74
2022/05/23 10:47:19;;;;;;;;;;;19.50;99.90;;;;;;5070245;28;20509;-74
2022/05/23 10:49:50;;;;;;;;;;;19.40;99.90;;;;;;5070187;28;19916;-79
2022/05/23 10:52:20;;;;;;;;;;;19.40;99.90;;;;;;5057122;28;19908;-74
2022/05/23 10:54:46;;;;;;;;;;;19.30;99.90;;;;;;5058938;28;19908;-74
2022/05/23 10:57:23;;;;;;;;;;;19.10;99.90;;;;;;5055110;28;19908;-77
2022/05/23 11:00:04;;;;;;;;;;;19.00;99.90;;;;;;5054408;28;20117;-74
2022/05/23 11:02:38;;;;;;;;;;;18.90;99.90;;;;;;5044111;28;19916;-73
2022/05/23 11:05:11;;;;;;;;;;;18.70;99.90;;;;;;5049895;28;19962;-73
2022/05/23 11:08:00;;;;;;;;;;;18.40;99.90;;;;;;5050638;28;20323;-73
2022/05/23 11:10:29;;;;;;;;;;;18.00;99.90;;;;;;5041641;28;19916;-73
2022/05/23 11:13:05;;;;;;;;;;;17.60;99.90;;;;;;5057240;28;19963;-73
2022/05/23 11:15:45;;;;;;;;;;;17.40;99.90;;;;;;5069675;28;19951;-73
2022/05/23 11:18:28;;;;;;;;;;;17.30;99.90;;;;;;5066523;28;19909;-73
2022/05/23 11:20:55;;;;;;;;;;;17.20;99.90;;;;;;5070709;28;19954;-74
2022/05/23 11:23:36;;;;;;;;;;;17.10;99.90;;;;;;5058941;28;19948;-73
2022/05/23 11:26:08;;;;;;;;;;;17.00;99.90;;;;;;5053513;28;19927;-73
2022/05/23 11:34:26;;;;;;;;;;;16.10;99.90;;;;;;5053605;28;19955;-73
2022/05/23 11:39:49;;;;;;;;;;;15.70;99.90;;;;;;5055758;28;19961;-72
2022/05/23 11:42:17;;;;;;;;;;;15.60;99.90;;;;;;5071181;28;20365;-73
2022/05/23 11:44:43;;;;;;;;;;;15.50;99.90;;;;;;5073146;28;19913;-73
2022/05/23 11:47:12;;;;;;;;;;;15.40;99.90;;;;;;5056501;28;20000;-73
2022/05/23 11:49:45;;;;;;;;;;;15.30;99.90;;;;;;5053831;28;19924;-72
2022/05/23 11:52:23;;;;;;;;;;;15.30;99.90;;;;;;5053538;28;19909;-73
2022/05/23 11:54:49;;;;;;;;;;;15.30;99.90;;;;;;5058897;28;19909;-74
2022/05/23 11:57:35;;;;;;;;;;;15.30;99.90;;;;;;5051206;28;19916;-73
2022/05/23 12:00:05;;;;;;;;;;;15.30;99.90;;;;;;5051743;28;19962;-72
2022/05/23 12:02:33;;;;;;;;;;;15.40;99.90;;;;;;5052881;28;20285;-72
2022/05/23 12:04:59;;;;;;;;;;;15.20;99.90;;;;;;5049836;28;19909;-72
2022/05/23 12:07:31;;;;;;;;;;;15.20;99.90;;;;;;5053785;28;19909;-76
2022/05/23 12:10:15;;;;;;;;;;;15.20;99.90;;;;;;5047366;28;20377;-73
2022/05/23 12:12:45;;;;;;;;;;;15.30;99.90;;;;;;5053089;28;19978;-73
2022/05/23 12:15:30;;;;;;;;;;;15.30;99.90;;;;;;5053421;28;20350;-73
2022/05/23 12:17:57;;;;;;;;;;;15.30;99.90;;;;;;5053594;28;19909;-74
2022/05/23 12:20:23;;;;;;;;;;;15.50;99.90;;;;;;5053777;28;20401;-74
2022/05/23 12:23:09;;;;;;;;;;;15.70;99.90;;;;;;5051233;28;19936;-76
2022/05/23 12:25:34;;;;;;;;;;;15.90;99.90;;;;;;5060025;28;19909;-74
2022/05/23 12:28:14;;;;;;;;;;;16.30;99.90;;;;;;5055829;28;19908;-75
2022/05/23 12:30:44;;;;;;;;;;;16.60;99.90;;;;;;5067501;28;19962;-75
2022/05/23 12:33:09;;;;;;;;;;;17.00;99.90;;;;;;5070741;28;20000;-79
2022/05/23 12:35:38;;;;;;;;;;;17.30;99.90;;;;;;5071303;28;19995;-74
2022/05/23 12:38:24;;;;;;;;;;;17.50;99.90;;;;;;5064509;28;20339;-77
2022/05/23 12:41:09;;;;;;;;;;;17.60;99.90;;;;;;5078739;28;19927;-74
2022/05/23 12:43:35;;;;;;;;;;;17.80;99.90;;;;;;5065484;28;20370;-74
2022/05/23 12:46:00;;;;;;;;;;;18.10;99.90;;;;;;5072077;28;19999;-74
2022/05/23 12:48:38;;;;;;;;;;;18.30;99.90;;;;;;5062902;28;20321;-76
2022/05/23 12:51:15;;;;;;;;;;;18.80;99.90;;;;;;5070237;28;20000;-76
2022/05/23 12:53:55;;;;;;;;;;;19.20;99.90;;;;;;5053381;28;19916;-74
2022/05/23 12:56:26;;;;;;;;;;;19.60;99.90;;;;;;5053159;28;19909;-75
2022/05/23 12:58:54;;;;;;;;;;;19.70;99.90;;;;;;5072170;28;19944;-74
2022/05/23 13:01:22;;;;;;;;;;;19.60;99.90;;;;;;5070299;28;19995;-79
2022/05/23 13:03:50;;;;;;;;;;;19.40;99.90;;;;;;5066941;28;20250;-77
2022/05/23 13:06:19;;;;;;;;;;;21.20;99.90;;;;;;5064546;28;19912;-74
2022/05/23 13:08:53;;;;;;;;;;;23.30;99.90;;;;;;5055503;28;19916;-80
2022/05/23 13:11:21;;;;;;;;;;;24.90;99.90;;;;;;5052334;28;20266;-79
2022/05/23 13:13:48;;;;;;;;;;;26.10;99.90;;;;;;5055047;28;19995;-78
2022/05/23 13:16:24;;;;;;;;;;;26.70;99.90;;;;;;5053408;28;19913;-74
2022/05/23 13:27:06;;;;;;;;;;;25.40;99.20;;;;;;5053643;28;20269;-76
2022/05/23 13:29:32;;;;;;;;;;;26.30;99.50;;;;;;5053392;28;20007;-76
2022/05/23 13:31:59;;;;;;;;;;;28.20;96.80;;;;;;5057953;28;19915;-74
2022/05/23 13:34:29;;;;;;;;;;;29.20;93.90;;;;;;5071677;28;19938;-77
2022/05/23 13:36:56;;;;;;;;;;;28.30;93.80;;;;;;5060081;28;20025;-77
2022/05/23 13:39:22;;;;;;;;;;;29.00;92.20;;;;;;5052678;28;20012;-74
2022/05/23 13:41:47;;;;;;;;;;;28.90;90.70;;;;;;5056479;28;19947;-77
2022/05/23 13:44:20;;;;;;;;;;;29.00;92.10;;;;;;5064773;28;20001;-74
2022/05/23 13:46:46;;;;;;;;;;;27.60;93.50;;;;;;5072039;28;19909;-74
2022/05/23 13:49:33;;;;;;;;;;;28.40;92.00;;;;;;5068593;28;20332;-75
2022/05/23 13:52:08;;;;;;;;;;;29.60;90.30;;;;;;5052699;28;20278;-75
2022/05/23 13:54:37;;;;;;;;;;;29.60;90.40;;;;;;5051869;28;19915;-78
2022/05/23 13:57:05;;;;;;;;;;;29.80;88.60;;;;;;5060411;28;19913;-75
2022/05/23 13:59:34;;;;;;;;;;;30.00;88.80;;;;;;5071786;28;19962;-74
2022/05/23 14:02:01;;;;;;;;;;;29.20;84.10;;;;;;5051565;28;19908;-77
2022/05/23 14:04:28;;;;;;;;;;;29.00;86.70;;;;;;5051781;28;19970;-75
2022/05/23 14:07:03;;;;;;;;;;;28.90;86.60;;;;;;5052021;28;19963;-80
2022/05/23 14:09:30;;;;;;;;;;;28.90;87.70;;;;;;5057322;28;19916;-75
2022/05/23 14:12:01;;;;;;;;;;;30.20;90.80;;;;;;5051936;28;20277;-75
2022/05/23 14:14:29;;;;;;;;;;;30.20;82.20;;;;;;5051893;28;19913;-75
2022/05/23 14:17:13;;;;;;;;;;;29.40;86.00;;;;;;5058147;28;19915;-75
2022/05/23 14:19:46;;;;;;;;;;;29.90;88.00;;;;;;5051988;28;20350;-76
2022/05/23 14:22:11;;;;;;;;;;;30.80;83.90;;;;;;5046719;28;20270;-75
2022/05/23 14:24:41;;;;;;;;;;;30.60;78.00;;;;;;5053721;28;19912;-75
2022/05/23 14:27:30;;;;;;;;;;;30.40;84.60;;;;;;5051673;28;20328;-75
2022/05/23 14:30:19;;;;;;;;;;;30.40;82.60;;;;;;5047797;28;19920;-76
2022/05/23 14:33:11;;;;;;;;;;;30.30;79.90;;;;;;5045629;28;19916;-75
2022/05/23 14:35:38;;;;;;;;;;;29.80;84.10;;;;;;5047472;28;19995;-75
2022/05/23 14:38:05;;;;;;;;;;;27.70;87.50;;;;;;5058817;28;19909;-74
2022/05/23 14:40:37;;;;;;;;;;;25.80;90.80;;;;;;5052039;28;19963;-75
2022/05/23 14:43:06;;;;;;;;;;;24.90;92.60;;;;;;5054340;28;19923;-78
2022/05/23 14:45:31;;;;;;;;;;;24.60;95.10;;;;;;5071346;28;19943;-75
2022/05/23 14:47:59;;;;;;;;;;;24.20;95.30;;;;;;5067508;28;19963;-77
2022/05/23 14:50:32;;;;;;;;;;;23.60;97.40;;;;;;5052571;28;19997;-75
2022/05/23 14:56:03;;;;;;;;;;;22.80;97.60;;;;;;5057915;28;19920;-75
2022/05/23 15:01:17;;;;;;;;;;;22.60;99.90;;;;;;5057085;28;19916;-75
2022/05/23 15:03:44;;;;;;;;;;;22.60;99.90;;;;;;5074664;28;19920;-75
2022/05/23 15:06:10;;;;;;;;;;;22.50;99.90;;;;;;5070664;28;20408;-77
2022/05/23 15:08:36;;;;;;;;;;;22.60;99.70;;;;;;5058156;28;19999;-77
2022/05/23 15:11:02;;;;;;;;;;;22.60;99.90;;;;;;5064517;28;19915;-79
2022/05/23 15:13:34;;;;;;;;;;;22.30;99.90;;;;;;5056982;28;19909;-78
2022/05/23 15:16:02;;;;;;;;;;;21.90;99.90;;;;;;5061199;28;19913;-79
2022/05/23 15:18:31;;;;;;;;;;;21.70;99.90;;;;;;5066212;28;19916;-75
2022/05/23 15:20:57;;;;;;;;;;;21.60;99.90;;;;;;5057800;28;20320;-75
2022/05/23 15:23:23;;;;;;;;;;;21.60;99.90;;;;;;5074512;28;19937;-75
2022/05/23 15:25:48;;;;;;;;;;;21.50;99.90;;;;;;5077452;28;20284;-75
2022/05/23 15:28:14;;;;;;;;;;;21.30;99.90;;;;;;5077090;28;19908;-75
2022/05/23 15:30:39;;;;;;;;;;;21.00;99.90;;;;;;5076890;28;20251;-80
2022/05/23 15:33:05;;;;;;;;;;;20.90;99.90;;;;;;5065617;28;20007;-75
2022/05/23 15:35:30;;;;;;;;;;;20.70;99.90;;;;;;5067073;28;19933;-75